Time;durP1;ratioP1;P1;durP2;ratioP2;P2;SDS_P1;SDS_P2;PMS_P1;PMS_P2;Temp;Humidity;BMP_temperature;BMP_pressure;BME280_temperature;BME280_humidity;BME280_pressure;Samples;Min_cycle;Max_cycle;Signal;HPM_P1;HPM_P2
2022/11/23 00:04:46;;;;;;;2.60;0.70;;;;;;;17.51;53.54;95347.06;10436621;28;20349;-30
2022/11/23 00:09:47;;;;;;;3.50;1.00;;;;;;;17.52;53.58;95341.13;10437627;28;20029;-31
2022/11/23 00:14:47;;;;;;;2.73;0.87;;;;;;;17.52;53.53;95343.66;10438935;28;20079;-29
2022/11/23 00:19:47;;;;;;;3.43;0.90;;;;;;;17.52;54.07;95336.06;10438336;28;20110;-30
2022/11/23 00:24:48;;;;;;;5.13;1.48;;;;;;;17.50;53.91;95341.16;10438102;28;20036;-30
2022/11/23 00:29:48;;;;;;;2.50;0.70;;;;;;;17.55;53.85;95338.53;10435910;28;20033;-30
2022/11/23 00:34:49;;;;;;;2.30;0.90;;;;;;;17.56;54.63;95345.28;10441149;28;20025;-30
2022/11/23 00:39:49;;;;;;;2.67;0.90;;;;;;;17.57;54.42;95341.91;10439447;28;20060;-30
2022/11/23 00:44:49;;;;;;;3.27;0.90;;;;;;;17.57;54.04;95342.72;10435761;28;20036;-30
2022/11/23 00:49:50;;;;;;;2.83;0.73;;;;;;;17.52;53.54;95338.59;10434023;28;20030;-30
2022/11/23 00:54:51;;;;;;;2.58;0.85;;;;;;;17.53;53.74;95342.81;10441609;28;20043;-30
2022/11/23 00:59:51;;;;;;;2.33;0.70;;;;;;;17.48;53.54;95342.88;10436217;28;20039;-30
2022/11/23 01:04:52;;;;;;;2.97;1.13;;;;;;;17.49;53.50;95348.78;10426202;28;20448;-29
2022/11/23 01:09:54;;;;;;;2.53;0.65;;;;;;;17.50;54.05;95341.16;10438696;28;20045;-30
2022/11/23 01:14:54;;;;;;;2.60;0.80;;;;;;;17.50;53.69;95337.81;10428435;28;20511;-30
2022/11/23 01:19:55;;;;;;;2.28;1.13;;;;;;;17.50;53.36;95337.81;10437851;28;20075;-30
2022/11/23 01:24:56;;;;;;;4.73;0.70;;;;;;;17.49;53.56;95343.72;10434951;28;20034;-29
2022/11/23 01:29:56;;;;;;;3.23;1.30;;;;;;;17.48;53.57;95342.06;10431323;28;20064;-29
2022/11/23 01:34:56;;;;;;;2.70;1.10;;;;;;;17.46;53.85;95333.66;10438204;28;20044;-29
2022/11/23 01:39:57;;;;;;;2.70;0.73;;;;;;;17.45;53.90;95339.56;10434700;28;20052;-30
2022/11/23 01:45:37;;;;;;;2.45;0.77;;;;;;;17.49;53.70;95343.72;10445021;28;20115;-32
2022/11/23 01:50:39;;;;;;;2.88;0.73;;;;;;;17.55;55.20;95343.59;10436342;28;20041;-31
2022/11/23 01:55:41;;;;;;;1.92;0.85;;;;;;;17.54;55.12;95347.00;10431180;28;20474;-30
2022/11/23 02:00:41;;;;;;;2.17;0.65;;;;;;;17.50;54.67;95340.34;10430918;28;20041;-30
2022/11/23 02:05:53;;;;;;;2.27;0.70;;;;;;;17.50;53.38;95346.22;10438773;28;20045;-31
2022/11/23 02:10:56;;;;;;;2.13;0.85;;;;;;;17.51;53.50;95342.00;10431657;28;20292;-29
2022/11/23 02:15:58;;;;;;;3.05;0.90;;;;;;;17.49;53.40;95343.72;10435347;28;20091;-31
2022/11/23 02:21:01;;;;;;;2.85;0.90;;;;;;;17.49;53.58;95351.31;10436008;28;20033;-30
2022/11/23 02:26:07;;;;;;;3.15;0.80;;;;;;;17.47;53.06;95355.56;10432237;28;20624;-30
2022/11/23 02:31:08;;;;;;;2.58;0.93;;;;;;;17.46;53.19;95348.81;10436450;28;20559;-29
2022/11/23 02:36:27;;;;;;;3.83;0.95;;;;;;;17.44;53.28;95340.44;10432077;28;20116;-30
2022/11/23 02:41:34;;;;;;;3.28;1.20;;;;;;;17.45;53.42;95337.03;10434259;28;20411;-30
2022/11/23 02:46:35;;;;;;;4.10;1.00;;;;;;;17.44;53.20;95336.22;10432856;28;20052;-29
2022/11/23 02:51:35;;;;;;;2.25;0.68;;;;;;;17.43;53.41;95328.66;10429288;28;20112;-29
2022/11/23 02:56:36;;;;;;;3.17;1.35;;;;;;;17.42;53.32;95337.94;10435106;28;20052;-30
2022/11/23 03:01:39;;;;;;;2.33;0.70;;;;;;;17.49;54.25;95328.56;10435765;28;20071;-30
2022/11/23 03:06:40;;;;;;;4.40;0.75;;;;;;;17.50;54.65;95328.50;10427319;28;20039;-30
2022/11/23 03:11:41;;;;;;;2.13;0.68;;;;;;;17.51;54.47;95322.56;10433515;28;20181;-30
2022/11/23 03:16:41;;;;;;;2.70;0.73;;;;;;;17.48;53.76;95314.25;10430236;28;20036;-30
2022/11/23 03:21:42;;;;;;;2.58;0.88;;;;;;;17.45;53.64;95309.22;10425951;28;20033;-30
2022/11/23 03:26:42;;;;;;;2.25;0.70;;;;;;;17.46;53.96;95313.41;10433199;28;20040;-31
2022/11/23 03:31:46;;;;;;;2.58;0.60;;;;;;;17.45;53.46;95306.69;10424103;28;20084;-30
2022/11/23 03:36:48;;;;;;;2.28;1.10;;;;;;;17.43;52.95;95288.19;10432561;28;20503;-30
2022/11/23 03:41:49;;;;;;;2.45;0.73;;;;;;;17.44;52.83;95298.28;10434923;28;20120;-30
2022/11/23 03:46:50;;;;;;;3.72;0.90;;;;;;;17.44;52.97;95299.97;10442899;28;20098;-30
2022/11/23 03:51:50;;;;;;;2.70;1.10;;;;;;;17.43;52.95;95300.81;10438915;28;20025;-30
2022/11/23 03:56:51;;;;;;;3.45;1.08;;;;;;;17.44;53.03;95299.97;10442680;28;20035;-30
2022/11/23 04:01:52;;;;;;;2.05;0.90;;;;;;;17.42;53.07;95304.22;10441592;28;20033;-30
2022/11/23 04:06:58;;;;;;;4.13;0.90;;;;;;;17.41;52.99;95298.31;10437557;28;20060;-29
2022/11/23 04:12:06;;;;;;;3.03;1.00;;;;;;;17.43;52.97;95294.09;10437653;28;20032;-30
2022/11/23 04:17:08;;;;;;;2.80;1.20;;;;;;;17.48;54.16;95294.81;10434829;28;20032;-30
2022/11/23 04:22:09;;;;;;;2.10;1.00;;;;;;;17.47;55.29;95287.25;10440795;28;20033;-29
2022/11/23 04:27:14;;;;;;;2.78;1.55;;;;;;;17.49;51.76;95283.00;10436220;28;20036;-30
2022/11/23 04:32:15;;;;;;;4.15;1.95;;;;;;;17.44;53.58;95274.66;10434617;28;20072;-30
2022/11/23 04:37:15;;;;;;;1.93;0.97;;;;;;;17.41;52.92;95274.72;10434090;28;20036;-30
2022/11/23 04:42:17;;;;;;;5.18;1.70;;;;;;;17.45;52.73;95281.38;10436961;28;20025;-30
2022/11/23 04:47:24;;;;;;;3.17;1.30;;;;;;;17.44;52.75;95284.78;10435595;28;20131;-30
2022/11/23 04:52:25;;;;;;;2.42;1.00;;;;;;;17.47;53.38;95279.66;10430026;28;20029;-29
2022/11/23 04:57:26;;;;;;;3.00;1.37;;;;;;;17.49;52.80;95277.94;10437991;28;20029;-30
2022/11/23 05:02:26;;;;;;;4.45;1.10;;;;;;;17.52;52.58;95277.88;10438120;28;20126;-30
2022/11/23 05:07:49;;;;;;;2.22;0.80;;;;;;;17.49;53.85;95278.75;10434053;28;20063;-30
2022/11/23 05:12:51;;;;;;;3.10;1.30;;;;;;;17.52;53.00;95272.81;10434670;28;20114;-30
2022/11/23 05:17:51;;;;;;;3.37;1.27;;;;;;;17.50;53.15;95274.56;10432613;28;20118;-30
2022/11/23 05:22:58;;;;;;;2.03;1.20;;;;;;;17.51;51.60;95282.09;10439940;28;20577;-29
2022/11/23 05:27:59;;;;;;;2.20;1.30;;;;;;;17.52;52.73;95277.88;10438490;28;20052;-30
2022/11/23 05:33:02;;;;;;;4.40;1.80;;;;;;;17.57;51.82;95282.00;10434763;28;20032;-29
2022/11/23 05:38:03;;;;;;;3.70;1.50;;;;;;;17.55;53.27;95287.94;10433503;28;20024;-30
2022/11/23 05:43:06;;;;;;;4.07;1.33;;;;;;;17.53;52.66;95284.59;10438385;28;20036;-30
2022/11/23 05:48:06;;;;;;;2.30;0.90;;;;;;;17.49;50.05;95277.94;10430929;28;20032;-30
2022/11/23 05:53:19;;;;;;;1.95;0.98;;;;;;;17.41;49.73;95282.31;10424529;28;20366;-30
2022/11/23 05:58:25;;;;;;;2.53;0.98;;;;;;;17.49;48.30;95288.06;10434237;28;20040;-30
2022/11/23 06:03:25;;;;;;;6.85;1.23;;;;;;;17.55;50.27;95293.00;10425549;28;20502;-30
2022/11/23 06:08:26;;;;;;;4.10;1.23;;;;;;;17.55;49.70;95293.00;10430997;28;20136;-28
2022/11/23 06:13:26;;;;;;;3.55;1.10;;;;;;;17.58;48.79;95298.00;10432085;28;20025;-30
2022/11/23 06:18:27;;;;;;;6.45;1.60;;;;;;;17.57;51.32;95293.81;10435925;28;20021;-30
2022/11/23 06:23:27;;;;;;;5.40;1.33;;;;;;;17.51;50.50;95286.34;10434021;28;20063;-30
2022/11/23 06:28:30;;;;;;;4.22;1.48;;;;;;;17.53;48.07;95294.72;10435564;28;20029;-30
2022/11/23 06:33:33;;;;;;;5.95;1.05;;;;;;;17.33;47.24;95292.53;10432669;28;20532;-30
2022/11/23 06:38:33;;;;;;;6.75;1.10;;;;;;;17.24;49.88;95286.81;10429442;28;20426;-31
2022/11/23 06:43:56;;;;;;;4.53;1.50;;;;;;;17.35;52.00;95292.50;10439381;28;20090;-30
2022/11/23 06:49:08;;;;;;;5.22;1.92;;;;;;;17.42;52.94;95294.09;10427861;28;20021;-30
2022/11/23 06:54:08;;;;;;;3.47;1.20;;;;;;;17.42;51.74;95307.56;10431306;28;20029;-30
2022/11/23 06:59:09;;;;;;;2.28;0.93;;;;;;;17.40;51.50;95303.41;10434225;28;20056;-30
2022/11/23 07:04:10;;;;;;;6.53;2.05;;;;;;;17.35;51.87;95311.06;10430303;28;20021;-30
2022/11/23 07:09:18;;;;;;;4.15;1.23;;;;;;;17.33;51.73;95307.69;10429463;28;20108;-30
2022/11/23 07:14:27;;;;;;;3.78;1.17;;;;;;;17.32;50.27;95305.22;10432458;28;20036;-30
2022/11/23 07:19:29;;;;;;;3.05;1.10;;;;;;;17.33;50.27;95306.88;10442917;28;20045;-30
2022/11/23 07:24:32;;;;;;;6.00;1.13;;;;;;;17.33;49.69;95311.94;10438363;28;20047;-29
2022/11/23 07:29:32;;;;;;;2.85;0.88;;;;;;;17.31;49.63;95314.50;10443404;28;20040;-30
2022/11/23 07:34:33;;;;;;;3.08;1.17;;;;;;;17.31;49.58;95313.69;10442667;28;20491;-31
2022/11/23 07:39:33;;;;;;;2.55;0.85;;;;;;;17.29;50.29;95310.31;10437964;28;20033;-31
2022/11/23 07:44:35;;;;;;;3.65;0.98;;;;;;;17.22;49.79;95294.44;10442643;28;20022;-30
2022/11/23 07:49:36;;;;;;;2.55;0.80;;;;;;;17.27;49.70;95307.00;10441617;28;20040;-31
2022/11/23 07:54:36;;;;;;;1.67;0.87;;;;;;;17.27;50.91;95297.72;10438530;28;20032;-29
2022/11/23 07:59:36;;;;;;;1.63;0.80;;;;;;;17.32;53.58;95295.94;10434064;28;20036;-30
2022/11/23 08:04:37;;;;;;;1.83;0.67;;;;;;;17.33;54.55;95301.84;10436453;28;20035;-31
2022/11/23 08:09:37;;;;;;;3.13;0.93;;;;;;;17.32;53.84;95290.06;10437996;28;20491;-30
2022/11/23 08:14:38;;;;;;;2.53;1.10;;;;;;;17.29;51.64;95290.09;10431164;28;20498;-30
2022/11/23 08:19:38;;;;;;;2.57;1.13;;;;;;;17.28;50.82;95289.28;10435005;28;20032;-30
2022/11/23 08:24:38;;;;;;;1.83;0.87;;;;;;;17.26;50.55;95290.16;10437505;28;20033;-29
2022/11/23 08:29:39;;;;;;;1.93;0.63;;;;;;;17.21;52.19;95285.19;10432501;28;20044;-30
2022/11/23 08:34:41;;;;;;;3.13;0.87;;;;;;;17.24;51.15;95297.75;10440569;28;20048;-30
2022/11/23 08:39:42;;;;;;;2.20;0.80;;;;;;;17.26;50.21;95297.75;10428822;28;20036;-30
2022/11/23 08:44:42;;;;;;;3.03;1.00;;;;;;;17.25;50.14;95298.59;10440835;28;20034;-31
2022/11/23 08:49:43;;;;;;;1.93;0.73;;;;;;;17.25;50.34;95299.41;10434011;28;20055;-30
2022/11/23 08:54:43;;;;;;;1.42;0.50;;;;;;;17.24;49.56;95292.69;10440692;28;20796;-30
2022/11/23 08:59:43;;;;;;;2.10;0.87;;;;;;;17.23;50.74;95295.28;10436729;28;20029;-30
2022/11/23 09:04:44;;;;;;;2.27;0.80;;;;;;;17.25;49.97;95288.47;10435300;28;20276;-30
2022/11/23 09:09:44;;;;;;;2.87;1.10;;;;;;;17.25;50.49;95291.00;10436025;28;20028;-31
2022/11/23 09:14:44;;;;;;;2.37;0.80;;;;;;;17.30;52.34;95291.75;10438192;28;20078;-30
2022/11/23 09:19:45;;;;;;;1.40;0.63;;;;;;;17.10;51.71;95258.41;10428650;28;20800;-30
2022/11/23 09:24:45;;;;;;;1.03;0.67;;;;;;;17.30;52.45;95296.81;10435824;28;20487;-30
2022/11/23 09:29:45;;;;;;;1.90;0.70;;;;;;;17.27;51.19;95300.25;10433735;28;20287;-30
2022/11/23 09:34:46;;;;;;;1.83;0.70;;;;;;;17.26;49.82;95297.75;10436619;28;20021;-30
2022/11/23 09:39:46;;;;;;;0.97;0.60;;;;;;;17.25;49.85;95291.84;10434789;28;20095;-31
2022/11/23 09:45:19;;;;;;;1.67;0.70;;;;;;;17.24;49.74;95292.69;10439818;28;20025;-31
2022/11/23 09:50:22;;;;;;;1.95;1.25;;;;;;;17.24;49.69;95296.94;10438263;28;20074;-30
2022/11/23 09:55:44;;;;;;;0.90;0.60;;;;;;;17.25;49.66;95289.31;10433690;28;20064;-31
2022/11/23 10:00:49;;;;;;;1.35;0.47;;;;;;;17.25;48.98;95286.78;10423707;28;20042;-30
2022/11/23 10:06:04;;;;;;;2.42;0.60;;;;;;;17.24;48.93;95276.72;10432168;28;20045;-30
2022/11/23 10:11:25;;;;;;;1.33;0.70;;;;;;;17.25;49.19;95285.97;10432028;28;20087;-31
2022/11/23 10:16:38;;;;;;;2.33;0.82;;;;;;;17.24;49.35;95276.72;10435700;28;20120;-30
2022/11/23 10:21:44;;;;;;;0.85;0.50;;;;;;;17.24;49.30;95274.19;10435557;28;20033;-30
2022/11/23 10:26:48;;;;;;;1.87;0.50;;;;;;;17.26;49.20;95262.31;10424359;28;20032;-30
2022/11/23 10:31:50;;;;;;;1.50;0.55;;;;;;;17.27;50.86;95262.31;10437996;28;20112;-30
2022/11/23 10:36:51;;;;;;;1.52;0.70;;;;;;;17.30;51.29;95252.13;10439053;28;20055;-30
2022/11/23 10:41:53;;;;;;;0.97;0.50;;;;;;;17.33;50.25;95251.25;10436374;28;20040;-31
2022/11/23 10:46:53;;;;;;;0.82;0.52;;;;;;;17.28;49.66;95247.94;10432167;28;20098;-30
2022/11/23 10:52:04;;;;;;;0.50;0.40;;;;;;;17.34;49.15;95253.72;10446698;28;20534;-30
2022/11/23 10:57:27;;;;;;;0.85;0.30;;;;;;;17.36;49.79;95241.09;10449717;28;20317;-30
2022/11/23 11:02:28;;;;;;;0.85;0.68;;;;;;;17.38;47.75;95235.16;10446222;28;20511;-30
2022/11/23 11:07:29;;;;;;;0.65;0.45;;;;;;;17.40;47.49;95232.59;10445067;28;20039;-30
2022/11/23 11:12:33;;;;;;;1.02;0.45;;;;;;;17.40;47.29;95227.53;10448344;28;20487;-30
2022/11/23 11:17:34;;;;;;;1.10;0.50;;;;;;;17.42;47.82;95223.28;10445396;28;20040;-30
2022/11/23 11:22:35;;;;;;;7.85;0.88;;;;;;;17.41;47.61;95216.56;10446181;28;20137;-30
2022/11/23 11:27:35;;;;;;;3.67;0.63;;;;;;;17.41;47.42;95209.78;10444897;28;20105;-30
2022/11/23 11:33:12;;;;;;;2.73;0.70;;;;;;;17.36;47.31;95205.69;10441940;28;20436;-30
2022/11/23 11:38:28;;;;;;;11.93;0.97;;;;;;;17.33;45.03;95220.88;10441111;28;20052;-30
2022/11/23 11:43:35;;;;;;;1.27;0.38;;;;;;;17.35;46.38;95219.16;10451518;28;20047;-30
2022/11/23 11:48:40;;;;;;;;;;;;;;;17.40;45.33;95213.16;10448624;28;20079;-31
2022/11/23 11:54:04;;;;;;;1.73;0.50;;;;;;;17.41;46.21;95216.56;10441555;28;20421;-29
2022/11/23 11:59:10;;;;;;;1.20;0.57;;;;;;;17.40;46.38;95219.94;10440399;28;20095;-30
2022/11/23 12:04:22;;;;;;;1.15;0.63;;;;;;;17.39;45.92;95205.59;10440805;28;20037;-30
2022/11/23 12:09:30;;;;;;;0.98;0.75;;;;;;;17.40;45.91;95213.16;10436598;28;20021;-31
2022/11/23 12:14:30;;;;;;;1.42;0.88;;;;;;;17.40;46.13;95202.25;10437402;28;20029;-30
2022/11/23 12:19:54;;;;;;;1.38;0.95;;;;;;;17.40;45.76;95207.28;10433090;28;20041;-30
2022/11/23 12:25:03;;;;;;;2.30;1.08;;;;;;;17.40;45.84;95192.13;10422952;28;20053;-30
2022/11/23 12:30:28;;;;;;;2.40;1.20;;;;;;;17.42;45.96;95190.38;10439479;28;20158;-30
2022/11/23 12:35:29;;;;;;;1.95;1.13;;;;;;;17.41;46.17;95184.47;10436590;28;20033;-30
2022/11/23 12:41:08;;;;;;;4.53;1.20;;;;;;;17.40;46.14;95180.28;10435849;28;20054;-30
2022/11/23 12:46:21;;;;;;;3.00;1.00;;;;;;;17.36;45.67;95170.25;10435012;28;20096;-30
2022/11/23 12:51:49;;;;;;;4.40;2.40;;;;;;;17.25;46.38;95151.91;10436323;28;20110;-30
2022/11/23 12:56:52;;;;;;;3.15;1.45;;;;;;;17.37;45.87;95161.81;10439607;28;20031;-30
2022/11/23 13:01:59;;;;;;;5.07;1.33;;;;;;;17.39;46.03;95155.00;10434733;28;20035;-30
2022/11/23 13:07:06;;;;;;;3.95;1.35;;;;;;;17.41;47.60;95148.25;10430213;28;20037;-30
2022/11/23 13:12:06;;;;;;;2.65;0.80;;;;;;;17.43;46.70;95147.34;10437410;28;20033;-30
2022/11/23 13:17:32;;;;;;;17.83;1.85;;;;;;;17.37;47.82;95136.50;10430255;28;20119;-30
2022/11/23 13:22:34;;;;;;;3.60;1.00;;;;;;;17.34;46.90;95136.56;10429779;28;20076;-30
2022/11/23 13:27:57;;;;;;;0.80;0.60;;;;;;;17.32;46.70;95128.19;10434567;28;20040;-30
2022/11/23 13:33:15;;;;;;;1.20;0.70;;;;;;;17.31;46.63;95121.47;10433770;28;20495;-31
2022/11/23 13:38:15;;;;;;;1.48;0.85;;;;;;;17.32;46.53;95113.81;10429590;28;20032;-30
2022/11/23 13:43:32;;;;;;;1.38;0.55;;;;;;;17.30;46.19;95112.19;10437386;28;20033;-30
2022/11/23 13:48:42;;;;;;;2.83;0.60;;;;;;;17.29;46.98;95107.97;10440181;28;20044;-30
2022/11/23 13:53:51;;;;;;;2.28;1.00;;;;;;;17.28;46.97;95101.28;10426721;28;20028;-30
2022/11/23 13:58:54;;;;;;;1.33;0.60;;;;;;;17.27;46.07;95087.81;10435696;28;20426;-31
2022/11/23 14:03:55;;;;;;;1.63;0.50;;;;;;;17.22;45.79;95078.63;10436811;28;20038;-30
2022/11/23 14:09:10;;;;;;;2.08;0.73;;;;;;;17.29;46.15;95087.75;10428869;28;20041;-31
2022/11/23 14:14:18;;;;;;;1.70;0.70;;;;;;;17.30;45.92;95089.41;10436402;28;20025;-31
2022/11/23 14:19:35;;;;;;;1.75;0.60;;;;;;;17.40;47.16;95088.41;10440485;28;20458;-30
2022/11/23 14:24:59;;;;;;;;;;;;;;;17.42;46.75;95087.47;10440195;28;20664;-30
2022/11/23 14:30:21;;;;;;;1.20;0.47;;;;;;;17.36;45.97;95072.47;10438707;28;19913;-30
2022/11/23 14:35:31;;;;;;;1.33;0.70;;;;;;;17.32;45.83;95078.41;10444425;28;20246;-30
2022/11/23 14:40:56;;;;;;;4.25;0.80;;;;;;;17.10;45.72;95071.31;10437907;28;20041;-30
2022/11/23 14:46:02;;;;;;;1.05;0.60;;;;;;;17.12;46.62;95072.09;10431600;28;20047;-30
2022/11/23 14:51:10;;;;;;;1.85;0.60;;;;;;;17.25;46.27;95081.94;10431348;28;20112;-29
2022/11/23 14:56:29;;;;;;;2.17;0.70;;;;;;;17.32;46.80;95092.75;10432023;28;20040;-30
2022/11/23 15:01:30;;;;;;;1.30;0.70;;;;;;;17.30;45.92;95084.34;10429290;28;20450;-30
2022/11/23 15:06:36;;;;;;;1.00;0.73;;;;;;;17.33;46.51;95091.91;10431380;28;20030;-30
2022/11/23 15:11:37;;;;;;;0.77;0.47;;;;;;;17.30;46.37;95099.53;10435402;28;20055;-31
2022/11/23 15:16:41;;;;;;;1.27;0.77;;;;;;;17.29;45.69;95105.47;10431334;28;20033;-30
2022/11/23 15:21:43;;;;;;;1.17;0.50;;;;;;;17.29;46.32;95113.03;10435894;28;20036;-30
2022/11/23 15:26:43;;;;;;;0.70;0.50;;;;;;;17.28;46.50;95121.50;10426233;28;20029;-31
2022/11/23 15:31:44;;;;;;;2.50;0.70;;;;;;;17.32;46.34;95123.13;10436236;28;20115;-30
2022/11/23 15:36:45;;;;;;;1.03;0.67;;;;;;;17.36;46.92;95127.25;10439198;28;20033;-31
2022/11/23 15:41:48;;;;;;;1.77;0.60;;;;;;;17.37;46.12;95137.34;10439529;28;20060;-31
2022/11/23 15:46:51;;;;;;;1.02;0.60;;;;;;;17.34;46.53;95146.66;10441098;28;20025;-29
2022/11/23 15:51:58;;;;;;;0.73;0.32;;;;;;;17.32;46.56;95158.53;10435877;28;20029;-30
2022/11/23 15:57:00;;;;;;;1.40;0.63;;;;;;;17.28;46.47;95177.13;10440812;28;20526;-30
2022/11/23 16:02:05;;;;;;;0.95;0.65;;;;;;;17.29;46.51;95206.63;10439796;28;20127;-30
2022/11/23 16:07:20;;;;;;;2.05;0.70;;;;;;;17.27;46.98;95237.03;10437810;28;20501;-30
2022/11/23 16:12:27;;;;;;;0.68;0.50;;;;;;;17.27;47.12;95231.13;10438182;28;20400;-30
2022/11/23 16:17:28;;;;;;;1.48;0.85;;;;;;;17.28;46.71;95230.25;10438617;28;20060;-30
2022/11/23 16:22:37;;;;;;;1.88;0.90;;;;;;;17.27;47.13;95272.44;10443610;28;20116;-30
2022/11/23 16:27:37;;;;;;;1.63;0.98;;;;;;;17.28;47.26;95274.09;10434747;28;20044;-29
2022/11/23 16:32:38;;;;;;;1.00;0.90;;;;;;;17.27;47.24;95264.00;10439368;28;20040;-30
2022/11/23 16:37:38;;;;;;;2.00;1.10;;;;;;;17.27;47.60;95262.31;10436106;28;20067;-31
2022/11/23 16:42:39;;;;;;;1.37;1.13;;;;;;;17.27;47.20;95277.50;10440142;28;20283;-30
2022/11/23 16:47:53;;;;;;;2.00;1.30;;;;;;;17.18;48.70;95281.88;10432927;28;20036;-30
2022/11/23 16:52:53;;;;;;;1.20;0.90;;;;;;;17.12;48.07;95287.03;10423552;28;20036;-30
2022/11/23 16:57:54;;;;;;;1.08;0.90;;;;;;;17.22;49.83;95309.59;10439450;28;20068;-30
2022/11/23 17:02:55;;;;;;;2.00;1.17;;;;;;;17.29;48.07;95335.59;10429562;28;20868;-30
2022/11/23 17:07:55;;;;;;;2.27;1.23;;;;;;;17.29;47.52;95371.88;10430263;28;20037;-30
2022/11/23 17:12:56;;;;;;;2.47;1.30;;;;;;;17.30;48.36;95382.81;10435004;28;20033;-30
2022/11/23 17:17:56;;;;;;;3.58;1.50;;;;;;;17.29;47.56;95381.97;10430887;28;20292;-30
2022/11/23 17:22:59;;;;;;;3.53;1.00;;;;;;;17.30;47.72;95383.66;10443287;28;20505;-30
2022/11/23 17:28:00;;;;;;;2.70;1.20;;;;;;;17.29;48.63;95396.31;10434308;28;20036;-31
2022/11/23 17:33:01;;;;;;;1.95;1.00;;;;;;;17.31;50.29;95409.78;10429887;28;20496;-30
2022/11/23 17:38:02;;;;;;;1.45;1.35;;;;;;;17.30;51.34;95413.16;10440059;28;20542;-31
2022/11/23 17:43:02;;;;;;;1.48;0.70;;;;;;;17.32;52.28;95424.09;10432894;28;20127;-30
2022/11/23 17:48:03;;;;;;;1.13;0.90;;;;;;;17.34;52.01;95447.69;10440139;28;20032;-30
2022/11/23 17:53:03;;;;;;;2.40;1.00;;;;;;;17.37;50.94;95447.66;10429898;28;20059;-30
2022/11/23 17:58:04;;;;;;;2.78;1.40;;;;;;;17.35;52.68;95472.09;10431428;28;20049;-30
2022/11/23 18:03:05;;;;;;;3.53;1.63;;;;;;;17.42;52.70;95483.84;10428268;28;20032;-30
2022/11/23 18:08:05;;;;;;;2.27;1.47;;;;;;;17.45;54.10;95491.38;10431554;28;20082;-30
2022/11/23 18:13:05;;;;;;;2.83;1.10;;;;;;;17.47;55.82;95513.25;10435603;28;20275;-30
2022/11/23 18:18:06;;;;;;;8.07;1.20;;;;;;;17.49;57.14;95526.72;10429402;28;20043;-30
2022/11/23 18:23:06;;;;;;;2.83;1.40;;;;;;;17.51;54.02;95544.41;10434012;28;20124;-30
2022/11/23 18:28:06;;;;;;;4.03;1.47;;;;;;;17.47;55.44;95547.84;10437695;28;20029;-31
2022/11/23 18:33:07;;;;;;;2.63;1.23;;;;;;;17.48;54.98;95582.44;10422534;28;20291;-30
2022/11/23 18:38:08;;;;;;;2.73;1.30;;;;;;;17.46;55.78;95599.31;10433806;28;20362;-30
2022/11/23 18:43:08;;;;;;;2.88;1.20;;;;;;;17.48;55.59;95608.53;10434903;28;20403;-30
2022/11/23 18:48:08;;;;;;;5.00;1.10;;;;;;;17.48;55.71;95615.31;10428361;28;20036;-30
2022/11/23 18:53:09;;;;;;;2.77;1.00;;;;;;;17.46;55.65;95619.53;10426605;28;20020;-30
2022/11/23 18:58:09;;;;;;;1.87;1.50;;;;;;;17.29;56.01;95608.78;10435926;28;20290;-31
2022/11/23 19:03:10;;;;;;;2.05;0.93;;;;;;;17.46;55.05;95647.38;10428091;28;20295;-30
2022/11/23 19:08:10;;;;;;;2.45;1.17;;;;;;;17.53;53.99;95664.16;10425116;28;20116;-30
2022/11/23 19:13:11;;;;;;;4.60;1.20;;;;;;;17.53;54.71;95669.22;10439851;28;20495;-30
2022/11/23 19:18:11;;;;;;;3.90;1.40;;;;;;;17.57;56.81;95686.03;10439070;28;20332;-31
2022/11/23 19:23:11;;;;;;;3.63;1.27;;;;;;;17.55;59.01;95690.25;10433649;28;20061;-31
2022/11/23 19:28:12;;;;;;;3.90;1.40;;;;;;;17.46;54.56;95703.03;10436399;28;20043;-30
2022/11/23 19:33:12;;;;;;;4.40;1.40;;;;;;;17.53;54.78;95714.75;10436915;28;20033;-27
2022/11/23 19:38:15;;;;;;;4.10;1.40;;;;;;;17.52;54.87;95734.19;10433983;28;20033;-31
2022/11/23 19:43:15;;;;;;;3.13;1.95;;;;;;;17.55;56.45;95744.25;10443879;28;20450;-30
2022/11/23 19:48:15;;;;;;;5.57;1.43;;;;;;;17.53;57.91;95745.13;10439915;28;20037;-30
2022/11/23 19:53:16;;;;;;;3.20;1.80;;;;;;;17.51;58.06;95765.38;10433106;28;20032;-30
2022/11/23 19:58:16;;;;;;;3.53;1.57;;;;;;;17.54;57.30;95772.09;10442218;28;20033;-29
2022/11/23 20:03:17;;;;;;;9.73;1.45;;;;;;;17.54;58.51;95793.19;10430795;28;20032;-30
2022/11/23 20:08:17;;;;;;;1.77;1.30;;;;;;;17.48;58.80;95792.44;10440271;28;20036;-29
2022/11/23 20:13:17;;;;;;;4.97;1.27;;;;;;;17.53;57.38;95821.91;10440498;28;20036;-30
2022/11/23 20:18:18;;;;;;;2.10;1.10;;;;;;;17.52;58.94;95829.50;10437844;28;20040;-31
2022/11/23 20:23:18;;;;;;;4.30;1.47;;;;;;;17.53;58.08;95836.22;10440684;28;20292;-29
2022/11/23 20:28:19;;;;;;;5.77;1.70;;;;;;;17.54;59.97;95842.97;10438264;28;20284;-30
2022/11/23 20:33:19;;;;;;;3.07;1.37;;;;;;;17.57;59.86;95850.53;10438315;28;20028;-30
2022/11/23 20:38:19;;;;;;;3.47;1.05;;;;;;;17.60;58.94;95853.03;10435462;28;20294;-32
2022/11/23 20:43:20;;;;;;;2.37;1.20;;;;;;;17.59;58.72;95866.53;10436947;28;20040;-30
2022/11/23 20:48:20;;;;;;;3.10;1.40;;;;;;;17.54;59.02;95876.72;10436937;28;20353;-29
2022/11/23 20:53:20;;;;;;;2.43;1.27;;;;;;;17.56;59.02;95891.88;10429939;28;20484;-29
2022/11/23 20:58:21;;;;;;;4.20;1.93;;;;;;;17.53;57.96;95894.44;10441195;28;20521;-30
2022/11/23 21:03:21;;;;;;;1.77;1.20;;;;;;;17.60;59.11;95906.19;10433610;28;20291;-30
2022/11/23 21:08:26;;;;;;;2.17;0.83;;;;;;;17.58;59.02;95910.41;10437895;28;20067;-31
2022/11/23 21:18:45;;;;;;;3.38;1.20;;;;;;;17.59;57.89;95922.22;10439827;28;20034;-30
2022/11/23 21:23:45;;;;;;;3.53;1.20;;;;;;;17.58;59.10;95923.06;10446798;28;20029;-29
2022/11/23 21:28:46;;;;;;;2.80;1.60;;;;;;;17.58;59.39;95931.50;10440788;28;20033;-30
2022/11/23 21:33:46;;;;;;;1.25;1.08;;;;;;;17.56;59.06;95927.31;10438252;28;20035;-30
2022/11/23 21:38:47;;;;;;;2.72;1.10;;;;;;;17.53;59.05;95919.75;10434712;28;20086;-30
2022/11/23 21:43:51;;;;;;;4.05;1.25;;;;;;;17.59;59.70;95932.34;10439688;28;20108;-30
2022/11/23 21:48:54;;;;;;;2.53;1.38;;;;;;;17.64;58.90;95945.78;10440738;28;20051;-30
2022/11/23 21:53:59;;;;;;;1.77;1.55;;;;;;;17.64;59.46;95953.38;10432132;28;20565;-30
2022/11/23 21:58:59;;;;;;;2.47;1.00;;;;;;;17.63;57.03;95950.03;10436218;28;20132;-31
2022/11/23 22:04:07;;;;;;;2.30;1.13;;;;;;;17.65;57.10;95960.13;10426891;28;20373;-31
2022/11/23 22:09:09;;;;;;;4.50;1.55;;;;;;;17.63;60.43;95984.59;10435255;28;20033;-31
2022/11/23 22:14:12;;;;;;;3.55;1.50;;;;;;;17.60;59.63;95984.63;10430377;28;20048;-30
2022/11/23 22:19:14;;;;;;;2.70;1.23;;;;;;;17.60;60.13;95999.81;10423748;28;20041;-30
2022/11/23 22:24:17;;;;;;;2.13;1.50;;;;;;;17.57;60.08;95999.84;10431766;28;20032;-30
2022/11/23 22:29:17;;;;;;;2.53;1.05;;;;;;;17.59;59.91;96006.56;10436996;28;20056;-30
2022/11/23 22:34:18;;;;;;;2.73;1.13;;;;;;;17.56;59.94;96009.13;10434292;28;20461;-30
2022/11/23 22:39:18;;;;;;;2.30;1.10;;;;;;;17.58;60.20;96011.66;10433965;28;20519;-30
2022/11/23 22:44:18;;;;;;;2.73;1.30;;;;;;;17.56;60.74;96023.50;10433967;28;20037;-30
2022/11/23 22:49:19;;;;;;;2.07;1.20;;;;;;;17.57;61.13;96032.75;10437141;28;20296;-32
2022/11/23 22:54:19;;;;;;;4.23;1.07;;;;;;;17.57;61.77;96025.16;10431540;28;20035;-30
2022/11/23 22:59:19;;;;;;;3.47;1.70;;;;;;;17.60;59.77;96040.31;10430981;28;20033;-30
2022/11/23 23:04:20;;;;;;;5.70;1.30;;;;;;;17.57;61.37;96055.53;10430157;28;20037;-30
2022/11/23 23:09:20;;;;;;;5.80;1.90;;;;;;;17.56;60.88;96053.88;10433055;28;20399;-31
2022/11/23 23:14:20;;;;;;;1.93;1.00;;;;;;;17.56;60.54;96054.69;10431372;28;20548;-30
2022/11/23 23:19:21;;;;;;;2.43;1.17;;;;;;;17.56;60.45;96052.16;10429497;28;20475;-29
2022/11/23 23:24:22;;;;;;;1.17;0.87;;;;;;;17.53;60.92;96059.78;10428398;28;20483;-30
2022/11/23 23:29:22;;;;;;;3.00;0.90;;;;;;;17.54;60.61;96061.47;10420234;28;20030;-30
2022/11/23 23:34:22;;;;;;;2.03;1.17;;;;;;;17.55;60.77;96059.75;10426483;28;20033;-30
2022/11/23 23:39:23;;;;;;;4.57;1.00;;;;;;;17.54;60.85;96070.72;10432494;28;20118;-30
2022/11/23 23:44:23;;;;;;;2.93;1.53;;;;;;;17.52;60.62;96063.16;10429475;28;20033;-31